createdAt,value
2023-01-26T22:45:16.965Z,12.20
2023-01-26T22:46:16.924Z,18.20
2023-01-26T22:47:16.908Z,18.80
2023-01-26T22:48:16.919Z,19.90
2023-01-26T22:49:16.891Z,24.20
2023-01-26T22:50:16.879Z,22.70
2023-01-26T22:51:18.220Z,21.10
2023-01-26T22:52:16.855Z,22.30
2023-01-26T22:53:16.840Z,21.30
2023-01-26T22:54:16.837Z,21.20
2023-01-26T22:55:16.836Z,20.80
2023-01-26T22:56:16.812Z,21.60
2023-01-26T22:57:16.806Z,20.10
2023-01-26T22:58:16.806Z,19.10
2023-01-26T22:59:16.793Z,18.80
2023-01-26T23:00:16.768Z,16.10
2023-01-26T23:01:16.835Z,17.10
2023-01-26T23:02:16.748Z,16.90
2023-01-26T23:03:16.739Z,16.90
2023-01-26T23:04:16.818Z,16.80
2023-01-26T23:05:16.727Z,15.10
2023-01-26T23:06:16.704Z,13.30
2023-01-26T23:07:16.690Z,14.20
2023-01-26T23:08:16.682Z,13.00
2023-01-26T23:09:16.691Z,11.60
2023-01-26T23:10:16.658Z,13.30
2023-01-26T23:11:16.645Z,12.30
2023-01-26T23:12:16.639Z,12.50
2023-01-26T23:13:16.643Z,11.20
2023-01-26T23:14:16.651Z,11.30
2023-01-26T23:15:16.604Z,11.10
2023-01-26T23:16:16.632Z,11.00
2023-01-26T23:17:16.619Z,11.60
2023-01-26T23:18:16.573Z,11.10
2023-01-26T23:19:16.575Z,11.10
2023-01-26T23:20:16.559Z,10.60
2023-01-26T23:21:16.594Z,11.20
2023-01-26T23:22:16.670Z,11.20
2023-01-26T23:23:16.522Z,11.70
2023-01-26T23:24:16.575Z,11.60
2023-01-26T23:25:16.524Z,11.30
2023-01-26T23:26:16.486Z,11.00
2023-01-26T23:27:16.481Z,11.60
2023-01-26T23:28:16.484Z,11.00
2023-01-26T23:29:16.463Z,11.60
2023-01-26T23:30:16.476Z,11.30
2023-01-26T23:31:16.550Z,11.20
2023-01-26T23:32:16.447Z,12.00
2023-01-26T23:33:16.434Z,11.90
2023-01-26T23:34:16.412Z,12.20
2023-01-26T23:35:16.383Z,12.00
2023-01-26T23:36:16.400Z,12.90
2023-01-26T23:37:16.376Z,12.10
2023-01-26T23:38:16.365Z,12.20
2023-01-26T23:39:16.408Z,12.00
2023-01-26T23:40:16.334Z,13.40
2023-01-26T23:41:16.347Z,13.20
2023-01-26T23:42:16.330Z,12.90
2023-01-26T23:43:17.341Z,14.10
2023-01-26T23:44:16.333Z,12.80
2023-01-26T23:45:16.295Z,13.20
2023-01-26T23:46:16.271Z,13.50
2023-01-26T23:47:16.348Z,13.40
2023-01-26T23:48:16.250Z,14.00
2023-01-26T23:49:16.258Z,13.50
2023-01-26T23:50:16.252Z,13.30
2023-01-26T23:51:16.226Z,13.50
2023-01-26T23:52:16.238Z,12.70
2023-01-26T23:53:16.214Z,13.50
2023-01-26T23:54:16.183Z,12.90
2023-01-26T23:55:16.167Z,13.40
2023-01-26T23:56:16.170Z,13.00
2023-01-26T23:57:16.147Z,13.50
2023-01-26T23:58:16.139Z,13.40
2023-01-26T23:59:16.122Z,13.60
